Accueil
METAR-TAF:

METAR-TAF

Aéroports :

Aéroport international Diori Hamani

Niamey, Niger

latitude: 13-29N, longitude: 002-10E, altitude: 223 m

Observation

Le bulletin a été fait il y a 36 minutes, à 18:00 UTC
Vent 4 kt de sud-est
Température 34°C
Humidité 16%
Pression 1009 hPa
Visibilité: 7000 m

METAR: DRRN 221800Z 14004KT 7000 NSC 34/05 Q1009 NOSIG

Heure: 19:36 (18:36 UTC)

Prévision

Le bulletin a été fait il y a 1 heure et 36 minutes, à 17:00 UTC
Prévision valable du 22 à 18 UTC au 23 à 24 UTC
Vent 8 kt de sud-est
Visibilité: 8000 m

TAF: DRRN 221700Z 2218/2324 13008KT 8000 NSC

Observations et prévisions météorologiques de plus de 4000 aéroports (messages METAR et TAF).

Les stations disponibles sont représentées par des disques jaunes et rouges sur la carte.

Passer la souris dessus pour voir le nom de la station.

Cliquer dessus pour voir les observations et prévisions météorologiques.

Pour changer de carte: cliquez sur les boutons verts avec une croix noire pour zoomer, sur le bouton vert avec un tiret pour effectuer un zoom arrière, ou sur les flèches vertes pour les cartes adjacentes.


METAR-TAF: